Main page
METAR-TAF:

METAR-TAF

Airports :

Tomahawk Regional Airport

Tomahawk, Wisconsin, United States

latitude: 45-28-08N, longitude: 089-48-20W, elevation: 1486 ft

Current weather observation

The report was made 31 minutes ago, at 13:55 UTC
Wind 9 mph from the North/Northeast
Temperature 28°F
Humidity 74%
Pressure 29.70 in. Hg
Visibility: 10 miles
Overcast at a height of 1600 ft

METAR: KTKV 231355Z AUTO 02008KT 10SM OVC016 M02/M06 A2970 RMK AO2 T10201059 PWINO

Time: 08:26 (14:26 UTC)


TAF: missing

Weather observations and forecasts of more than 4000 airports (METAR and TAF reports).

The available stations are represented by yellow and red dots on the map.

Hover mouse over dot to see the name of the station.

Then click to see weather observations and forecasts.

To change the map : click on the green buttons with a black cross to zoom in, on the green button with a dash to zoom out, or on the green arrows for adjacent maps.


METAR-TAF: